Currently 75°F in Moreno Valley, California, USA
75°F
95°F / 61°F
4 mph NW
0.00"
Wednesday, July 8, 2020 9:31 PM PDT

Moreno Valley, California Weather Summary
Last 36 Hours

Temperature Winds Hourly Humidity Dewpoint
Time Report Norm Report Norm Max Gusts Precip. Rpt. Norm Rpt. Norm Pressure
1Wed 09:31 PM  74.9°F  75°F  4 mph NW  2 mph  9 mph  0.00"  50%  53%  55°F  57°F  29.82"
Wed 09:00 PM  75.9°F  77°F  3 mph W  3 mph  12 mph  0.00"  49%  50%  55°F  56°F  29.81"
Wed 08:00 PM  79.3°F  80°F  3 mph W  5 mph  13 mph  0.00"  39%  45%  52°F  56°F  29.80"
Wed 07:00 PM  83.4°F  84°F  5 mph NW  6 mph  13 mph  0.00"  32%  38%  49°F  55°F  29.79"
Wed 06:00 PM  88.5°F  89°F  8 mph W  7 mph  15 mph  0.00"  32%  32%  54°F  54°F  29.79"
Wed 05:00 PM  93.1°F  92°F  8 mph W  7 mph  15 mph  0.00"  32%  29%  58°F  54°F  29.78"
Wed 04:00 PM  95.0°F  93°F  8 mph W  7 mph  13 mph  0.00"  28%  27%  56°F  54°F  29.77"
Wed 03:00 PM  94.3°F  94°F  7 mph SW  6 mph  14 mph  0.00"  26%  26%  52°F  53°F  29.79"
2Wed 02:40 PM  95.3°F  93°F  6 mph SW  6 mph  14 mph  ----  23%  26%  51°F  53°F  29.80"
Wed 02:00 PM  94.1°F  93°F  calm  6 mph  13 mph  0.00"  21%  27%  47°F  52°F  29.81"
Wed 01:00 PM  91.2°F  91°F  5 mph SW  5 mph  10 mph  0.00"  26%  29%  50°F  53°F  29.83"
Wed 12:00 PM  88.3°F  88°F  2 mph S  4 mph  8 mph  0.00"  29%  33%  51°F  55°F  29.84"
Wed 11:00 AM  83.8°F  85°F  calm  4 mph  7 mph  0.00"  31%  39%  49°F  57°F  29.85"
Wed 10:00 AM  79.8°F  81°F  2 mph SW  3 mph  7 mph  0.00"  43%  48%  55°F  59°F  29.86"
Wed 09:00 AM  76.4°F  77°F  calm  2 mph  5 mph  0.00"  59%  58%  60°F  60°F  29.86"
Wed 08:00 AM  71.0°F  72°F  1 mph S  1 mph  3 mph  0.00"  70%  67%  60°F  60°F  29.86"
Wed 07:00 AM  64.9°F  67°F  calm  1 mph  none  0.00"  84%  75%  60°F  59°F  29.85"
Wed 06:00 AM  62.0°F  65°F  calm  calm  2 mph  0.00"  84%  77%  57°F  57°F  29.84"
3Wed 05:39 AM  61.5°F  65°F  calm  calm  2 mph  ----  83%  76%  56°F  57°F  29.83"
Wed 05:00 AM  62.2°F  65°F  calm  calm  none  0.00"  82%  76%  57°F  57°F  29.83"
Wed 04:00 AM  63.4°F  65°F  calm  calm  none  0.00"  80%  75%  57°F  57°F  29.82"
Wed 03:00 AM  64.4°F  66°F  calm  calm  none  0.00"  76%  74%  56°F  57°F  29.82"
Wed 02:00 AM  66.3°F  67°F  calm  calm  none  0.00"  69%  72%  56°F  57°F  29.82"
Wed 01:00 AM  67.5°F  68°F  calm  calm  none  0.00"  68%  69%  56°F  57°F  29.83"
Wed 12:00 AM  69.6°F  70°F  calm  1 mph  4 mph  0.00"  62%  66%  56°F  57°F  29.83"
Tue 11:00 PM  74.0°F  72°F  calm  1 mph  7 mph  0.00"  48%  61%  52°F  57°F  29.83"
Tue 10:00 PM  75.7°F  74°F  2 mph NW  2 mph  11 mph  0.00"  59%  56%  60°F  57°F  29.83"
Tue 09:00 PM  77.6°F  77°F  4 mph NW  3 mph  11 mph  0.00"  47%  50%  55°F  56°F  29.80"
Tue 08:00 PM  80.5°F  80°F  5 mph NW  5 mph  13 mph  0.00"  42%  45%  54°F  56°F  29.80"
Tue 07:00 PM  84.6°F  84°F  9 mph W  6 mph  15 mph  0.00"  35%  38%  53°F  55°F  29.79"
Tue 06:00 PM  89.4°F  89°F  6 mph NW  7 mph  15 mph  0.00"  33%  32%  56°F  54°F  29.79"
Tue 05:00 PM  95.0°F  92°F  8 mph W  7 mph  14 mph  0.00"  28%  29%  56°F  54°F  29.79"
Tue 04:00 PM  97.3°F  93°F  5 mph W  7 mph  16 mph  0.00"  26%  27%  55°F  53°F  29.79"
Tue 03:00 PM  96.3°F  94°F  4 mph SW  6 mph  14 mph  0.00"  19%  26%  46°F  53°F  29.81"
Tue 02:00 PM  96.8°F  92°F  3 mph W  6 mph  13 mph  0.00"  18%  27%  44°F  52°F  29.83"
Tue 01:00 PM  95.1°F  91°F  3 mph S  5 mph  9 mph  0.00"  18%  29%  43°F  53°F  29.84"
Tue 12:00 PM  92.0°F  88°F  3 mph SE  4 mph  11 mph  0.00"  18%  33%  41°F  55°F  29.85"
Tue 11:00 AM  89.0°F  85°F  6 mph SE  3 mph  9 mph  0.00"  21%  39%  43°F  56°F  29.87"
Tue 10:00 AM  85.9°F  81°F  calm  3 mph  7 mph  0.00"  26%  48%  46°F  59°F  29.87"

  1. Current weather data. No green row appears if the current weather data is also the high or low for the current day.
  2. High temperature for the current day.
  3. Low temperature for the current day.

The Moreno Valley, California weather pages are a service of WeatherCurrents. Moreno Valley is located in Southern California's Inland Empire, east of Riverside and north of Perris, along the State Route 60 freeway.
Copyright ©2020  WeatherCurrents. All rights reserved. - Submit questions and comments - Privacy Policy

This page automatically refreshes every 10 minutes.